Altoona, Wisconsin
Current Conditions -  °F | °C
As of 10:56 PM on Saturday 25 Oct 2014 (Local Time) from KEAU Reporting Station
Clear Clear  
Wind Chill: 45°   Ceiling: Unl
Heat Index: 45°   Visibility: 10mi
Dew Point: 27°   Wind: 3mph
Humidity: 49%   Direction: 250°WSW
Pressure: 30.01"   Gusts: NA
Location:  44.81°N, 91.43°W
Report Text: KEAU 260356Z AUTO 25003KT 10SM CLR 07/M03 A3001 RMK AO2 SLP166 T00721028
Loading
Personal Weather Stations






























Interactive Weather Map
Tropical Storm Tracking
New forecast layout! Learn more

10-Day Weather Forecast

Advertisements
Track Severe Weather on mobile